sensor_id;sensor_type;location;lat;lon;timestamp;P1;durP1;ratioP1;P2;durP2;ratioP2
23470;SDS011;11908;50.806;4.424;2023-02-19T00:00:55;15.90;;;7.55;;
23470;SDS011;11908;50.806;4.424;2023-02-19T00:03:21;13.77;;;7.90;;
23470;SDS011;11908;50.806;4.424;2023-02-19T00:05:47;13.18;;;7.30;;
23470;SDS011;11908;50.806;4.424;2023-02-19T00:08:12;11.25;;;7.65;;
23470;SDS011;11908;50.806;4.424;2023-02-19T00:10:38;12.90;;;7.60;;
23470;SDS011;11908;50.806;4.424;2023-02-19T00:13:03;13.55;;;7.72;;
23470;SDS011;11908;50.806;4.424;2023-02-19T00:15:32;11.35;;;8.02;;
23470;SDS011;11908;50.806;4.424;2023-02-19T00:17:58;15.02;;;8.15;;
23470;SDS011;11908;50.806;4.424;2023-02-19T00:20:23;9.15;;;7.18;;
23470;SDS011;11908;50.806;4.424;2023-02-19T00:22:49;13.75;;;8.05;;
23470;SDS011;11908;50.806;4.424;2023-02-19T00:25:15;13.50;;;7.93;;
23470;SDS011;11908;50.806;4.424;2023-02-19T00:27:41;13.95;;;7.80;;
23470;SDS011;11908;50.806;4.424;2023-02-19T00:30:07;11.95;;;7.45;;
23470;SDS011;11908;50.806;4.424;2023-02-19T00:32:33;12.98;;;7.50;;
23470;SDS011;11908;50.806;4.424;2023-02-19T00:34:58;13.57;;;7.93;;
23470;SDS011;11908;50.806;4.424;2023-02-19T00:37:24;12.23;;;7.45;;
23470;SDS011;11908;50.806;4.424;2023-02-19T00:39:50;11.13;;;6.97;;
23470;SDS011;11908;50.806;4.424;2023-02-19T00:42:15;10.50;;;6.85;;
23470;SDS011;11908;50.806;4.424;2023-02-19T00:44:41;9.68;;;7.05;;
23470;SDS011;11908;50.806;4.424;2023-02-19T00:47:07;13.90;;;6.70;;
23470;SDS011;11908;50.806;4.424;2023-02-19T00:49:32;9.52;;;6.20;;
23470;SDS011;11908;50.806;4.424;2023-02-19T00:51:58;11.95;;;7.00;;
23470;SDS011;11908;50.806;4.424;2023-02-19T00:54:24;10.48;;;6.22;;
23470;SDS011;11908;50.806;4.424;2023-02-19T00:56:49;14.73;;;7.13;;
23470;SDS011;11908;50.806;4.424;2023-02-19T00:59:15;12.27;;;6.60;;
23470;SDS011;11908;50.806;4.424;2023-02-19T01:01:42;11.52;;;6.53;;
23470;SDS011;11908;50.806;4.424;2023-02-19T01:04:08;10.35;;;6.65;;
23470;SDS011;11908;50.806;4.424;2023-02-19T01:06:34;11.48;;;7.00;;
23470;SDS011;11908;50.806;4.424;2023-02-19T01:09:00;14.63;;;7.45;;
23470;SDS011;11908;50.806;4.424;2023-02-19T01:11:27;11.55;;;7.03;;
23470;SDS011;11908;50.806;4.424;2023-02-19T01:13:56;14.82;;;6.78;;
23470;SDS011;11908;50.806;4.424;2023-02-19T01:16:22;13.73;;;7.03;;
23470;SDS011;11908;50.806;4.424;2023-02-19T01:18:48;11.95;;;6.45;;
23470;SDS011;11908;50.806;4.424;2023-02-19T01:21:19;11.40;;;5.82;;
23470;SDS011;11908;50.806;4.424;2023-02-19T01:23:47;18.88;;;7.07;;
23470;SDS011;11908;50.806;4.424;2023-02-19T01:26:15;12.98;;;6.82;;
23470;SDS011;11908;50.806;4.424;2023-02-19T01:28:42;13.88;;;6.75;;
23470;SDS011;11908;50.806;4.424;2023-02-19T01:31:10;12.15;;;5.75;;
23470;SDS011;11908;50.806;4.424;2023-02-19T01:33:38;12.77;;;6.45;;
23470;SDS011;11908;50.806;4.424;2023-02-19T01:36:04;14.93;;;6.57;;
23470;SDS011;11908;50.806;4.424;2023-02-19T01:38:30;13.60;;;6.30;;
23470;SDS011;11908;50.806;4.424;2023-02-19T01:40:57;12.05;;;6.32;;
23470;SDS011;11908;50.806;4.424;2023-02-19T01:43:27;12.77;;;5.68;;
23470;SDS011;11908;50.806;4.424;2023-02-19T01:45:53;16.83;;;6.22;;
23470;SDS011;11908;50.806;4.424;2023-02-19T01:48:52;12.48;;;5.88;;
23470;SDS011;11908;50.806;4.424;2023-02-19T01:51:15;16.27;;;6.00;;
23470;SDS011;11908;50.806;4.424;2023-02-19T01:53:44;10.80;;;5.93;;
23470;SDS011;11908;50.806;4.424;2023-02-19T01:56:14;14.98;;;5.70;;
23470;SDS011;11908;50.806;4.424;2023-02-19T01:58:43;12.20;;;5.85;;
23470;SDS011;11908;50.806;4.424;2023-02-19T02:01:09;9.00;;;5.82;;
23470;SDS011;11908;50.806;4.424;2023-02-19T02:03:35;18.77;;;5.40;;
23470;SDS011;11908;50.806;4.424;2023-02-19T02:08:44;16.10;;;5.93;;
23470;SDS011;11908;50.806;4.424;2023-02-19T02:11:28;18.27;;;5.90;;
23470;SDS011;11908;50.806;4.424;2023-02-19T02:13:54;14.07;;;5.20;;
23470;SDS011;11908;50.806;4.424;2023-02-19T02:36:08;16.10;;;4.68;;
23470;SDS011;11908;50.806;4.424;2023-02-19T02:38:39;13.52;;;4.38;;
23470;SDS011;11908;50.806;4.424;2023-02-19T02:41:07;16.48;;;4.78;;
23470;SDS011;11908;50.806;4.424;2023-02-19T02:43:34;14.02;;;4.55;;
23470;SDS011;11908;50.806;4.424;2023-02-19T02:45:59;13.50;;;3.90;;
23470;SDS011;11908;50.806;4.424;2023-02-19T02:51:42;14.88;;;3.90;;
23470;SDS011;11908;50.806;4.424;2023-02-19T02:54:24;16.98;;;4.20;;
23470;SDS011;11908;50.806;4.424;2023-02-19T02:57:12;15.60;;;4.20;;
23470;SDS011;11908;50.806;4.424;2023-02-19T02:59:39;15.10;;;4.10;;
23470;SDS011;11908;50.806;4.424;2023-02-19T03:02:07;20.75;;;4.18;;
23470;SDS011;11908;50.806;4.424;2023-02-19T03:08:00;13.85;;;4.38;;
23470;SDS011;11908;50.806;4.424;2023-02-19T03:10:29;20.45;;;4.13;;
23470;SDS011;11908;50.806;4.424;2023-02-19T03:13:16;13.88;;;3.35;;
23470;SDS011;11908;50.806;4.424;2023-02-19T03:16:06;15.93;;;3.90;;
23470;SDS011;11908;50.806;4.424;2023-02-19T03:18:55;17.60;;;3.30;;
23470;SDS011;11908;50.806;4.424;2023-02-19T03:21:42;22.10;;;3.97;;
23470;SDS011;11908;50.806;4.424;2023-02-19T03:24:11;16.02;;;3.50;;
23470;SDS011;11908;50.806;4.424;2023-02-19T03:26:57;13.43;;;3.28;;
23470;SDS011;11908;50.806;4.424;2023-02-19T03:29:27;15.20;;;3.83;;
23470;SDS011;11908;50.806;4.424;2023-02-19T03:31:56;17.65;;;3.67;;
23470;SDS011;11908;50.806;4.424;2023-02-19T03:34:27;15.40;;;3.53;;
23470;SDS011;11908;50.806;4.424;2023-02-19T03:37:15;21.95;;;3.58;;
23470;SDS011;11908;50.806;4.424;2023-02-19T03:39:54;18.20;;;3.50;;
23470;SDS011;11908;50.806;4.424;2023-02-19T03:43:22;15.27;;;3.17;;
23470;SDS011;11908;50.806;4.424;2023-02-19T03:53:49;14.18;;;3.15;;
23470;SDS011;11908;50.806;4.424;2023-02-19T03:56:42;19.40;;;3.35;;
23470;SDS011;11908;50.806;4.424;2023-02-19T03:59:36;19.02;;;3.00;;
23470;SDS011;11908;50.806;4.424;2023-02-19T04:02:08;12.95;;;3.20;;
23470;SDS011;11908;50.806;4.424;2023-02-19T04:07:07;12.55;;;2.65;;
23470;SDS011;11908;50.806;4.424;2023-02-19T04:09:35;13.40;;;3.67;;
23470;SDS011;11908;50.806;4.424;2023-02-19T04:12:02;16.55;;;3.15;;
23470;SDS011;11908;50.806;4.424;2023-02-19T04:14:31;12.82;;;2.80;;
23470;SDS011;11908;50.806;4.424;2023-02-19T04:17:05;11.82;;;3.17;;
23470;SDS011;11908;50.806;4.424;2023-02-19T04:19:36;12.68;;;3.05;;
23470;SDS011;11908;50.806;4.424;2023-02-19T04:22:04;18.30;;;3.53;;
23470;SDS011;11908;50.806;4.424;2023-02-19T04:24:32;17.88;;;3.50;;
23470;SDS011;11908;50.806;4.424;2023-02-19T04:27:05;13.57;;;2.85;;
23470;SDS011;11908;50.806;4.424;2023-02-19T04:29:32;17.95;;;3.35;;
23470;SDS011;11908;50.806;4.424;2023-02-19T04:31:58;15.90;;;3.08;;
23470;SDS011;11908;50.806;4.424;2023-02-19T04:34:24;17.58;;;2.63;;
23470;SDS011;11908;50.806;4.424;2023-02-19T04:36:49;13.63;;;3.22;;
23470;SDS011;11908;50.806;4.424;2023-02-19T04:39:15;17.50;;;3.53;;
23470;SDS011;11908;50.806;4.424;2023-02-19T04:41:40;13.63;;;2.70;;
23470;SDS011;11908;50.806;4.424;2023-02-19T04:44:06;14.02;;;3.20;;
23470;SDS011;11908;50.806;4.424;2023-02-19T04:46:32;15.63;;;2.67;;
23470;SDS011;11908;50.806;4.424;2023-02-19T04:48:57;16.58;;;2.92;;
23470;SDS011;11908;50.806;4.424;2023-02-19T04:51:23;19.48;;;3.08;;
23470;SDS011;11908;50.806;4.424;2023-02-19T04:53:49;14.30;;;2.85;;
23470;SDS011;11908;50.806;4.424;2023-02-19T04:56:15;19.98;;;3.60;;
23470;SDS011;11908;50.806;4.424;2023-02-19T04:58:42;19.00;;;3.35;;
23470;SDS011;11908;50.806;4.424;2023-02-19T05:01:09;16.08;;;3.10;;
23470;SDS011;11908;50.806;4.424;2023-02-19T05:03:35;16.77;;;3.38;;
23470;SDS011;11908;50.806;4.424;2023-02-19T05:06:02;18.77;;;3.35;;
23470;SDS011;11908;50.806;4.424;2023-02-19T05:08:32;17.08;;;3.53;;
23470;SDS011;11908;50.806;4.424;2023-02-19T05:10:59;15.75;;;2.80;;
23470;SDS011;11908;50.806;4.424;2023-02-19T05:13:26;18.50;;;3.45;;
23470;SDS011;11908;50.806;4.424;2023-02-19T05:15:56;17.42;;;3.67;;
23470;SDS011;11908;50.806;4.424;2023-02-19T05:18:23;16.73;;;3.13;;
23470;SDS011;11908;50.806;4.424;2023-02-19T05:20:49;18.30;;;3.00;;
23470;SDS011;11908;50.806;4.424;2023-02-19T05:23:16;19.85;;;3.42;;
23470;SDS011;11908;50.806;4.424;2023-02-19T05:25:42;17.10;;;4.22;;
23470;SDS011;11908;50.806;4.424;2023-02-19T05:28:08;18.55;;;3.45;;
23470;SDS011;11908;50.806;4.424;2023-02-19T05:30:46;24.95;;;3.70;;
23470;SDS011;11908;50.806;4.424;2023-02-19T05:33:14;23.65;;;3.75;;
23470;SDS011;11908;50.806;4.424;2023-02-19T05:35:50;26.38;;;4.10;;
23470;SDS011;11908;50.806;4.424;2023-02-19T05:38:18;14.23;;;3.10;;
23470;SDS011;11908;50.806;4.424;2023-02-19T05:40:44;19.10;;;3.72;;
23470;SDS011;11908;50.806;4.424;2023-02-19T05:43:11;22.02;;;3.38;;
23470;SDS011;11908;50.806;4.424;2023-02-19T05:45:38;17.15;;;3.35;;
23470;SDS011;11908;50.806;4.424;2023-02-19T05:48:04;15.00;;;3.30;;
23470;SDS011;11908;50.806;4.424;2023-02-19T05:50:31;13.95;;;3.60;;
23470;SDS011;11908;50.806;4.424;2023-02-19T05:52:59;14.40;;;2.78;;
23470;SDS011;11908;50.806;4.424;2023-02-19T05:55:26;13.75;;;3.03;;
23470;SDS011;11908;50.806;4.424;2023-02-19T05:57:52;14.07;;;3.45;;
23470;SDS011;11908;50.806;4.424;2023-02-19T06:00:18;15.93;;;2.78;;
23470;SDS011;11908;50.806;4.424;2023-02-19T06:02:44;20.63;;;3.97;;
23470;SDS011;11908;50.806;4.424;2023-02-19T06:05:10;17.92;;;3.50;;
23470;SDS011;11908;50.806;4.424;2023-02-19T06:07:36;16.30;;;2.90;;
23470;SDS011;11908;50.806;4.424;2023-02-19T06:10:07;19.70;;;3.67;;
23470;SDS011;11908;50.806;4.424;2023-02-19T06:12:34;18.35;;;2.65;;
23470;SDS011;11908;50.806;4.424;2023-02-19T06:15:00;16.83;;;3.60;;
23470;SDS011;11908;50.806;4.424;2023-02-19T06:17:28;13.98;;;2.88;;
23470;SDS011;11908;50.806;4.424;2023-02-19T06:19:54;21.10;;;3.05;;
23470;SDS011;11908;50.806;4.424;2023-02-19T06:22:20;17.58;;;3.70;;
23470;SDS011;11908;50.806;4.424;2023-02-19T06:24:45;15.50;;;3.28;;
23470;SDS011;11908;50.806;4.424;2023-02-19T06:27:11;11.68;;;2.92;;
23470;SDS011;11908;50.806;4.424;2023-02-19T06:29:37;16.75;;;3.35;;
23470;SDS011;11908;50.806;4.424;2023-02-19T06:32:04;16.30;;;3.05;;
23470;SDS011;11908;50.806;4.424;2023-02-19T06:34:30;22.20;;;3.95;;
23470;SDS011;11908;50.806;4.424;2023-02-19T06:36:56;15.48;;;3.03;;
23470;SDS011;11908;50.806;4.424;2023-02-19T06:39:23;23.67;;;3.65;;
23470;SDS011;11908;50.806;4.424;2023-02-19T06:41:49;11.10;;;3.20;;
23470;SDS011;11908;50.806;4.424;2023-02-19T06:44:15;13.43;;;2.50;;
23470;SDS011;11908;50.806;4.424;2023-02-19T06:46:40;19.38;;;3.97;;
23470;SDS011;11908;50.806;4.424;2023-02-19T06:49:06;16.05;;;3.70;;
23470;SDS011;11908;50.806;4.424;2023-02-19T06:51:32;13.15;;;3.40;;
23470;SDS011;11908;50.806;4.424;2023-02-19T06:53:58;20.42;;;3.80;;
23470;SDS011;11908;50.806;4.424;2023-02-19T06:56:27;13.98;;;2.92;;
23470;SDS011;11908;50.806;4.424;2023-02-19T06:58:55;14.50;;;3.28;;
23470;SDS011;11908;50.806;4.424;2023-02-19T07:01:24;14.80;;;3.35;;
23470;SDS011;11908;50.806;4.424;2023-02-19T07:03:50;15.45;;;3.58;;
23470;SDS011;11908;50.806;4.424;2023-02-19T07:06:17;11.55;;;3.28;;
23470;SDS011;11908;50.806;4.424;2023-02-19T07:08:43;19.95;;;3.05;;
23470;SDS011;11908;50.806;4.424;2023-02-19T07:11:09;16.88;;;3.20;;
23470;SDS011;11908;50.806;4.424;2023-02-19T07:13:35;13.40;;;2.83;;
23470;SDS011;11908;50.806;4.424;2023-02-19T07:16:01;17.48;;;4.05;;
23470;SDS011;11908;50.806;4.424;2023-02-19T07:18:35;16.65;;;3.03;;
23470;SDS011;11908;50.806;4.424;2023-02-19T07:21:11;12.73;;;3.70;;
23470;SDS011;11908;50.806;4.424;2023-02-19T07:23:38;9.80;;;2.67;;
23470;SDS011;11908;50.806;4.424;2023-02-19T07:26:07;13.95;;;2.78;;
23470;SDS011;11908;50.806;4.424;2023-02-19T07:28:34;13.80;;;3.30;;
23470;SDS011;11908;50.806;4.424;2023-02-19T07:31:00;18.52;;;3.05;;
23470;SDS011;11908;50.806;4.424;2023-02-19T07:33:26;13.07;;;2.97;;
23470;SDS011;11908;50.806;4.424;2023-02-19T07:35:52;12.63;;;3.03;;
23470;SDS011;11908;50.806;4.424;2023-02-19T07:38:18;19.83;;;3.60;;
23470;SDS011;11908;50.806;4.424;2023-02-19T07:40:55;13.05;;;2.30;;
23470;SDS011;11908;50.806;4.424;2023-02-19T07:43:22;15.43;;;3.28;;
23470;SDS011;11908;50.806;4.424;2023-02-19T07:45:49;14.48;;;3.13;;
23470;SDS011;11908;50.806;4.424;2023-02-19T07:48:15;16.35;;;3.55;;
23470;SDS011;11908;50.806;4.424;2023-02-19T07:50:40;14.57;;;3.50;;
23470;SDS011;11908;50.806;4.424;2023-02-19T07:53:06;12.50;;;2.80;;
23470;SDS011;11908;50.806;4.424;2023-02-19T07:55:32;15.35;;;3.33;;
23470;SDS011;11908;50.806;4.424;2023-02-19T07:57:58;17.23;;;2.70;;
23470;SDS011;11908;50.806;4.424;2023-02-19T08:00:25;9.32;;;2.78;;
23470;SDS011;11908;50.806;4.424;2023-02-19T08:02:52;12.70;;;2.88;;
23470;SDS011;11908;50.806;4.424;2023-02-19T08:05:24;14.32;;;3.13;;
23470;SDS011;11908;50.806;4.424;2023-02-19T08:07:54;13.75;;;3.78;;
23470;SDS011;11908;50.806;4.424;2023-02-19T08:10:20;13.38;;;3.05;;
23470;SDS011;11908;50.806;4.424;2023-02-19T08:13:04;11.73;;;2.92;;
23470;SDS011;11908;50.806;4.424;2023-02-19T08:15:49;11.10;;;2.90;;
23470;SDS011;11908;50.806;4.424;2023-02-19T08:18:36;17.52;;;3.75;;
23470;SDS011;11908;50.806;4.424;2023-02-19T08:21:02;14.52;;;2.97;;
23470;SDS011;11908;50.806;4.424;2023-02-19T08:23:28;11.25;;;3.45;;
23470;SDS011;11908;50.806;4.424;2023-02-19T08:25:57;17.75;;;2.90;;
23470;SDS011;11908;50.806;4.424;2023-02-19T08:28:24;10.73;;;2.67;;
23470;SDS011;11908;50.806;4.424;2023-02-19T08:30:49;15.40;;;2.95;;
23470;SDS011;11908;50.806;4.424;2023-02-19T08:33:16;15.13;;;2.88;;
23470;SDS011;11908;50.806;4.424;2023-02-19T08:35:42;15.23;;;3.13;;
23470;SDS011;11908;50.806;4.424;2023-02-19T08:38:09;11.07;;;3.03;;
23470;SDS011;11908;50.806;4.424;2023-02-19T08:40:37;9.77;;;2.58;;
23470;SDS011;11908;50.806;4.424;2023-02-19T08:43:04;13.90;;;3.25;;
23470;SDS011;11908;50.806;4.424;2023-02-19T08:45:32;16.45;;;2.90;;
23470;SDS011;11908;50.806;4.424;2023-02-19T08:47:58;15.88;;;3.20;;
23470;SDS011;11908;50.806;4.424;2023-02-19T08:50:24;12.43;;;2.70;;
23470;SDS011;11908;50.806;4.424;2023-02-19T08:52:51;13.70;;;2.80;;
23470;SDS011;11908;50.806;4.424;2023-02-19T08:55:17;11.68;;;2.72;;
23470;SDS011;11908;50.806;4.424;2023-02-19T08:57:42;11.65;;;3.33;;
23470;SDS011;11908;50.806;4.424;2023-02-19T09:00:08;15.90;;;3.45;;
23470;SDS011;11908;50.806;4.424;2023-02-19T09:02:34;16.10;;;3.80;;
23470;SDS011;11908;50.806;4.424;2023-02-19T09:05:00;10.77;;;3.08;;
23470;SDS011;11908;50.806;4.424;2023-02-19T09:07:26;13.77;;;3.95;;
23470;SDS011;11908;50.806;4.424;2023-02-19T09:09:52;15.32;;;3.00;;
23470;SDS011;11908;50.806;4.424;2023-02-19T09:12:18;18.20;;;3.85;;
23470;SDS011;11908;50.806;4.424;2023-02-19T09:14:44;13.63;;;3.20;;
23470;SDS011;11908;50.806;4.424;2023-02-19T09:17:10;16.02;;;3.63;;
23470;SDS011;11908;50.806;4.424;2023-02-19T09:19:36;17.30;;;3.85;;
23470;SDS011;11908;50.806;4.424;2023-02-19T09:22:02;15.13;;;2.95;;
23470;SDS011;11908;50.806;4.424;2023-02-19T09:24:29;13.20;;;3.35;;
23470;SDS011;11908;50.806;4.424;2023-02-19T09:26:55;15.43;;;3.65;;
23470;SDS011;11908;50.806;4.424;2023-02-19T09:29:21;15.27;;;3.88;;
23470;SDS011;11908;50.806;4.424;2023-02-19T09:31:49;12.05;;;3.67;;
23470;SDS011;11908;50.806;4.424;2023-02-19T09:34:15;15.00;;;3.47;;
23470;SDS011;11908;50.806;4.424;2023-02-19T09:36:41;10.75;;;3.20;;
23470;SDS011;11908;50.806;4.424;2023-02-19T09:39:07;12.43;;;3.53;;
23470;SDS011;11908;50.806;4.424;2023-02-19T09:41:35;11.00;;;3.40;;
23470;SDS011;11908;50.806;4.424;2023-02-19T09:44:03;10.25;;;3.35;;
23470;SDS011;11908;50.806;4.424;2023-02-19T09:46:34;11.93;;;3.22;;
23470;SDS011;11908;50.806;4.424;2023-02-19T09:49:12;15.80;;;3.65;;
23470;SDS011;11908;50.806;4.424;2023-02-19T09:51:52;9.77;;;3.20;;
23470;SDS011;11908;50.806;4.424;2023-02-19T09:54:26;18.40;;;3.80;;
23470;SDS011;11908;50.806;4.424;2023-02-19T09:56:55;11.75;;;3.53;;
23470;SDS011;11908;50.806;4.424;2023-02-19T09:59:25;13.35;;;2.80;;
23470;SDS011;11908;50.806;4.424;2023-02-19T10:04:50;15.18;;;3.88;;
23470;SDS011;11908;50.806;4.424;2023-02-19T10:07:20;14.43;;;4.40;;
23470;SDS011;11908;50.806;4.424;2023-02-19T10:09:52;11.57;;;3.58;;
23470;SDS011;11908;50.806;4.424;2023-02-19T10:12:24;13.80;;;3.33;;
23470;SDS011;11908;50.806;4.424;2023-02-19T10:14:53;17.40;;;3.20;;
23470;SDS011;11908;50.806;4.424;2023-02-19T10:17:35;12.95;;;2.75;;
23470;SDS011;11908;50.806;4.424;2023-02-19T10:20:01;10.35;;;2.85;;
23470;SDS011;11908;50.806;4.424;2023-02-19T10:22:29;13.45;;;2.85;;
23470;SDS011;11908;50.806;4.424;2023-02-19T10:25:00;13.32;;;3.70;;
23470;SDS011;11908;50.806;4.424;2023-02-19T10:27:28;15.30;;;4.43;;
23470;SDS011;11908;50.806;4.424;2023-02-19T10:29:55;12.07;;;3.95;;
23470;SDS011;11908;50.806;4.424;2023-02-19T10:32:23;13.63;;;3.47;;
23470;SDS011;11908;50.806;4.424;2023-02-19T10:37:45;17.23;;;3.10;;
23470;SDS011;11908;50.806;4.424;2023-02-19T10:40:17;17.42;;;4.30;;
23470;SDS011;11908;50.806;4.424;2023-02-19T10:43:03;11.27;;;3.38;;
23470;SDS011;11908;50.806;4.424;2023-02-19T10:45:39;6.75;;;2.88;;
23470;SDS011;11908;50.806;4.424;2023-02-19T10:48:20;12.48;;;3.40;;
23470;SDS011;11908;50.806;4.424;2023-02-19T10:50:50;12.68;;;4.32;;
23470;SDS011;11908;50.806;4.424;2023-02-19T10:53:22;13.20;;;3.35;;
23470;SDS011;11908;50.806;4.424;2023-02-19T10:56:08;12.88;;;3.80;;
23470;SDS011;11908;50.806;4.424;2023-02-19T10:58:37;10.35;;;3.22;;
23470;SDS011;11908;50.806;4.424;2023-02-19T11:01:11;12.35;;;3.90;;
23470;SDS011;11908;50.806;4.424;2023-02-19T11:03:48;12.85;;;3.22;;
23470;SDS011;11908;50.806;4.424;2023-02-19T11:06:16;11.15;;;3.35;;
23470;SDS011;11908;50.806;4.424;2023-02-19T11:08:54;12.80;;;3.80;;
23470;SDS011;11908;50.806;4.424;2023-02-19T11:13:58;11.05;;;3.40;;
23470;SDS011;11908;50.806;4.424;2023-02-19T11:16:47;10.88;;;3.30;;
23470;SDS011;11908;50.806;4.424;2023-02-19T11:19:24;11.57;;;3.63;;
23470;SDS011;11908;50.806;4.424;2023-02-19T11:21:54;12.65;;;3.22;;
23470;SDS011;11908;50.806;4.424;2023-02-19T11:24:31;14.35;;;3.33;;
23470;SDS011;11908;50.806;4.424;2023-02-19T11:26:59;11.50;;;3.05;;
23470;SDS011;11908;50.806;4.424;2023-02-19T11:29:28;13.85;;;3.63;;
23470;SDS011;11908;50.806;4.424;2023-02-19T11:32:15;16.35;;;3.75;;
23470;SDS011;11908;50.806;4.424;2023-02-19T11:34:44;12.65;;;4.03;;
23470;SDS011;11908;50.806;4.424;2023-02-19T11:39:38;13.75;;;3.20;;
23470;SDS011;11908;50.806;4.424;2023-02-19T11:42:12;13.20;;;2.92;;
23470;SDS011;11908;50.806;4.424;2023-02-19T11:53:24;9.85;;;2.75;;
23470;SDS011;11908;50.806;4.424;2023-02-19T11:58:59;7.65;;;2.67;;
23470;SDS011;11908;50.806;4.424;2023-02-19T12:09:57;10.45;;;3.20;;
23470;SDS011;11908;50.806;4.424;2023-02-19T12:17:56;12.43;;;3.50;;
23470;SDS011;11908;50.806;4.424;2023-02-19T12:20:33;10.13;;;3.08;;
23470;SDS011;11908;50.806;4.424;2023-02-19T12:26:26;9.85;;;3.90;;
23470;SDS011;11908;50.806;4.424;2023-02-19T12:43:22;9.93;;;3.80;;
23470;SDS011;11908;50.806;4.424;2023-02-19T12:48:17;8.63;;;3.45;;
23470;SDS011;11908;50.806;4.424;2023-02-19T12:50:45;7.90;;;3.03;;
23470;SDS011;11908;50.806;4.424;2023-02-19T12:53:23;6.32;;;2.72;;
23470;SDS011;11908;50.806;4.424;2023-02-19T12:56:17;10.52;;;3.08;;
23470;SDS011;11908;50.806;4.424;2023-02-19T12:59:34;4.30;;;2.17;;
23470;SDS011;11908;50.806;4.424;2023-02-19T13:01:49;7.80;;;2.70;;
23470;SDS011;11908;50.806;4.424;2023-02-19T13:07:25;10.00;;;4.00;;
23470;SDS011;11908;50.806;4.424;2023-02-19T13:12:44;7.22;;;3.00;;
23470;SDS011;11908;50.806;4.424;2023-02-19T13:15:15;10.95;;;2.63;;
23470;SDS011;11908;50.806;4.424;2023-02-19T13:17:46;7.30;;;2.45;;
23470;SDS011;11908;50.806;4.424;2023-02-19T13:20:38;4.38;;;2.20;;
23470;SDS011;11908;50.806;4.424;2023-02-19T13:23:07;4.93;;;2.08;;
23470;SDS011;11908;50.806;4.424;2023-02-19T13:37:46;6.63;;;2.72;;
23470;SDS011;11908;50.806;4.424;2023-02-19T13:43:24;9.52;;;2.45;;
23470;SDS011;11908;50.806;4.424;2023-02-19T13:45:58;4.13;;;2.80;;
23470;SDS011;11908;50.806;4.424;2023-02-19T13:48:30;11.02;;;2.92;;
23470;SDS011;11908;50.806;4.424;2023-02-19T13:58:58;7.13;;;3.10;;
23470;SDS011;11908;50.806;4.424;2023-02-19T14:02:04;9.77;;;2.85;;
23470;SDS011;11908;50.806;4.424;2023-02-19T14:14:41;4.53;;;2.47;;
23470;SDS011;11908;50.806;4.424;2023-02-19T14:30:51;8.93;;;3.13;;
23470;SDS011;11908;50.806;4.424;2023-02-19T14:33:25;9.23;;;3.33;;
23470;SDS011;11908;50.806;4.424;2023-02-19T14:41:17;6.47;;;2.80;;
23470;SDS011;11908;50.806;4.424;2023-02-19T14:43:44;7.60;;;3.08;;
23470;SDS011;11908;50.806;4.424;2023-02-19T14:48:45;7.95;;;2.83;;
23470;SDS011;11908;50.806;4.424;2023-02-19T14:51:14;8.80;;;2.85;;
23470;SDS011;11908;50.806;4.424;2023-02-19T14:53:46;4.07;;;2.38;;
23470;SDS011;11908;50.806;4.424;2023-02-19T14:56:34;5.80;;;2.78;;
23470;SDS011;11908;50.806;4.424;2023-02-19T14:59:07;7.88;;;4.85;;
23470;SDS011;11908;50.806;4.424;2023-02-19T15:01:57;3.67;;;2.80;;
23470;SDS011;11908;50.806;4.424;2023-02-19T15:04:26;7.07;;;2.70;;
23470;SDS011;11908;50.806;4.424;2023-02-19T15:06:55;4.55;;;2.50;;
23470;SDS011;11908;50.806;4.424;2023-02-19T15:09:28;4.72;;;2.63;;
23470;SDS011;11908;50.806;4.424;2023-02-19T15:11:56;9.70;;;2.88;;
23470;SDS011;11908;50.806;4.424;2023-02-19T15:14:22;2.63;;;2.10;;
23470;SDS011;11908;50.806;4.424;2023-02-19T15:16:56;4.53;;;2.15;;
23470;SDS011;11908;50.806;4.424;2023-02-19T15:19:24;3.60;;;1.65;;
23470;SDS011;11908;50.806;4.424;2023-02-19T15:21:50;4.88;;;2.10;;
23470;SDS011;11908;50.806;4.424;2023-02-19T15:24:16;5.70;;;2.20;;
23470;SDS011;11908;50.806;4.424;2023-02-19T15:26:45;5.15;;;2.28;;
23470;SDS011;11908;50.806;4.424;2023-02-19T15:29:18;15.82;;;8.77;;
23470;SDS011;11908;50.806;4.424;2023-02-19T15:31:47;5.70;;;2.25;;
23470;SDS011;11908;50.806;4.424;2023-02-19T15:34:27;4.70;;;1.90;;
23470;SDS011;11908;50.806;4.424;2023-02-19T15:37:04;6.72;;;2.10;;
23470;SDS011;11908;50.806;4.424;2023-02-19T15:42:05;4.25;;;2.30;;
23470;SDS011;11908;50.806;4.424;2023-02-19T15:44:36;3.03;;;2.08;;
23470;SDS011;11908;50.806;4.424;2023-02-19T15:47:10;4.90;;;2.58;;
23470;SDS011;11908;50.806;4.424;2023-02-19T15:49:53;12.23;;;3.55;;
23470;SDS011;11908;50.806;4.424;2023-02-19T15:52:45;7.03;;;3.10;;
23470;SDS011;11908;50.806;4.424;2023-02-19T15:55:29;8.00;;;4.05;;
23470;SDS011;11908;50.806;4.424;2023-02-19T16:00:54;6.90;;;3.50;;
23470;SDS011;11908;50.806;4.424;2023-02-19T16:03:22;15.52;;;3.78;;
23470;SDS011;11908;50.806;4.424;2023-02-19T16:08:36;6.05;;;3.42;;
23470;SDS011;11908;50.806;4.424;2023-02-19T16:11:24;11.20;;;4.15;;
23470;SDS011;11908;50.806;4.424;2023-02-19T16:13:49;10.70;;;5.32;;
23470;SDS011;11908;50.806;4.424;2023-02-19T16:16:28;7.40;;;3.90;;
23470;SDS011;11908;50.806;4.424;2023-02-19T16:18:59;8.73;;;3.65;;
23470;SDS011;11908;50.806;4.424;2023-02-19T16:21:25;11.85;;;3.80;;
23470;SDS011;11908;50.806;4.424;2023-02-19T16:23:52;11.27;;;3.78;;
23470;SDS011;11908;50.806;4.424;2023-02-19T16:26:27;6.47;;;3.83;;
23470;SDS011;11908;50.806;4.424;2023-02-19T16:28:53;12.77;;;3.90;;
23470;SDS011;11908;50.806;4.424;2023-02-19T16:31:22;9.82;;;3.50;;
23470;SDS011;11908;50.806;4.424;2023-02-19T16:33:48;7.25;;;4.18;;
23470;SDS011;11908;50.806;4.424;2023-02-19T16:46:56;5.10;;;3.35;;
23470;SDS011;11908;50.806;4.424;2023-02-19T16:49:27;8.20;;;3.72;;
23470;SDS011;11908;50.806;4.424;2023-02-19T16:51:53;8.73;;;3.92;;
23470;SDS011;11908;50.806;4.424;2023-02-19T16:54:19;10.93;;;3.90;;
23470;SDS011;11908;50.806;4.424;2023-02-19T16:56:44;10.68;;;4.57;;
23470;SDS011;11908;50.806;4.424;2023-02-19T16:59:10;8.88;;;4.03;;
23470;SDS011;11908;50.806;4.424;2023-02-19T17:01:36;6.85;;;4.25;;
23470;SDS011;11908;50.806;4.424;2023-02-19T17:04:03;8.50;;;4.30;;
23470;SDS011;11908;50.806;4.424;2023-02-19T17:06:33;9.48;;;4.32;;
23470;SDS011;11908;50.806;4.424;2023-02-19T17:09:01;10.52;;;4.18;;
23470;SDS011;11908;50.806;4.424;2023-02-19T17:11:28;11.75;;;4.88;;
23470;SDS011;11908;50.806;4.424;2023-02-19T17:13:54;7.38;;;4.00;;
23470;SDS011;11908;50.806;4.424;2023-02-19T17:16:24;6.88;;;4.28;;
23470;SDS011;11908;50.806;4.424;2023-02-19T17:18:51;7.47;;;4.40;;
23470;SDS011;11908;50.806;4.424;2023-02-19T17:21:22;9.48;;;4.13;;
23470;SDS011;11908;50.806;4.424;2023-02-19T17:23:52;9.13;;;5.47;;
23470;SDS011;11908;50.806;4.424;2023-02-19T17:26:22;12.43;;;5.10;;
23470;SDS011;11908;50.806;4.424;2023-02-19T17:28:50;9.18;;;5.38;;
23470;SDS011;11908;50.806;4.424;2023-02-19T17:31:16;13.98;;;5.60;;
23470;SDS011;11908;50.806;4.424;2023-02-19T17:33:42;12.95;;;7.15;;
23470;SDS011;11908;50.806;4.424;2023-02-19T17:36:41;15.80;;;7.53;;
23470;SDS011;11908;50.806;4.424;2023-02-19T17:39:02;7.47;;;5.13;;
23470;SDS011;11908;50.806;4.424;2023-02-19T17:41:31;13.68;;;5.82;;
23470;SDS011;11908;50.806;4.424;2023-02-19T17:43:57;11.07;;;6.03;;
23470;SDS011;11908;50.806;4.424;2023-02-19T17:46:24;12.20;;;5.70;;
23470;SDS011;11908;50.806;4.424;2023-02-19T17:48:51;10.50;;;6.75;;
23470;SDS011;11908;50.806;4.424;2023-02-19T17:51:18;9.10;;;5.85;;